sensor_id;sensor_type;location;lat;lon;timestamp;pressure;altitude;pressure_sealevel;temperature;humidity
63582;BME280;49727;51.078;17.066;2022-11-20T00:07:34;99862.75;;;-6.23;70.92
63582;BME280;49727;51.078;17.066;2022-11-20T00:22:34;99869.75;;;-6.25;71.45
63582;BME280;49727;51.078;17.066;2022-11-20T00:37:34;99867.56;;;-6.34;70.76
63582;BME280;49727;51.078;17.066;2022-11-20T00:52:35;99875.00;;;-6.46;71.67
63582;BME280;49727;51.078;17.066;2022-11-20T01:07:35;99878.50;;;-6.47;71.90
63582;BME280;49727;51.078;17.066;2022-11-20T01:22:35;99880.13;;;-6.44;71.79
63582;BME280;49727;51.078;17.066;2022-11-20T01:37:36;99883.75;;;-6.67;71.50
63582;BME280;49727;51.078;17.066;2022-11-20T01:52:41;99873.31;;;-6.47;72.17
63582;BME280;49727;51.078;17.066;2022-11-20T02:07:43;99860.81;;;-6.56;72.34
63582;BME280;49727;51.078;17.066;2022-11-20T02:22:52;99862.75;;;-6.61;72.48
63582;BME280;49727;51.078;17.066;2022-11-20T02:37:56;99861.94;;;-6.82;72.88
63582;BME280;49727;51.078;17.066;2022-11-20T02:52:58;99867.16;;;-7.03;73.17
63582;BME280;49727;51.078;17.066;2022-11-20T03:07:58;99857.00;;;-7.07;72.61
63582;BME280;49727;51.078;17.066;2022-11-20T03:22:59;99853.47;;;-7.25;72.96
63582;BME280;49727;51.078;17.066;2022-11-20T03:38:00;99846.53;;;-7.25;73.45
63582;BME280;49727;51.078;17.066;2022-11-20T03:53:00;99855.63;;;-7.35;72.92
63582;BME280;49727;51.078;17.066;2022-11-20T04:08:00;99865.47;;;-7.45;73.34
63582;BME280;49727;51.078;17.066;2022-11-20T04:23:01;99875.31;;;-7.53;73.08
63582;BME280;49727;51.078;17.066;2022-11-20T04:38:01;99860.06;;;-7.59;74.47
63582;BME280;49727;51.078;17.066;2022-11-20T04:53:02;99853.50;;;-7.68;74.50
63582;BME280;49727;51.078;17.066;2022-11-20T05:08:02;99839.19;;;-7.77;74.23
63582;BME280;49727;51.078;17.066;2022-11-20T05:23:03;99820.44;;;-7.82;73.68
63582;BME280;49727;51.078;17.066;2022-11-20T05:38:03;99827.75;;;-7.71;74.29
63582;BME280;49727;51.078;17.066;2022-11-20T05:53:04;99806.59;;;-8.02;75.02
63582;BME280;49727;51.078;17.066;2022-11-20T06:08:04;99811.28;;;-8.11;74.84
63582;BME280;49727;51.078;17.066;2022-11-20T06:23:04;99795.50;;;-8.05;75.14
63582;BME280;49727;51.078;17.066;2022-11-20T06:38:05;99795.09;;;-7.74;75.55
63582;BME280;49727;51.078;17.066;2022-11-20T06:53:05;99799.09;;;-6.86;75.74
63582;BME280;49727;51.078;17.066;2022-11-20T07:08:06;99807.88;;;-5.44;76.35
63582;BME280;49727;51.078;17.066;2022-11-20T07:23:06;99806.44;;;-4.02;75.13
63582;BME280;49727;51.078;17.066;2022-11-20T07:38:07;99779.19;;;-2.93;73.55
63582;BME280;49727;51.078;17.066;2022-11-20T07:53:08;99773.28;;;-1.20;72.73
63582;BME280;49727;51.078;17.066;2022-11-20T08:08:08;99760.72;;;0.79;69.51
63582;BME280;49727;51.078;17.066;2022-11-20T08:23:08;99743.72;;;10.81;61.11
63582;BME280;49727;51.078;17.066;2022-11-20T08:38:09;99735.06;;;16.68;45.67
63582;BME280;49727;51.078;17.066;2022-11-20T08:53:09;99733.22;;;20.54;36.42
63582;BME280;49727;51.078;17.066;2022-11-20T09:08:10;99726.06;;;22.63;26.94
63582;BME280;49727;51.078;17.066;2022-11-20T09:23:10;99722.19;;;22.54;21.49
63582;BME280;49727;51.078;17.066;2022-11-20T09:38:11;99701.75;;;23.52;18.84
63582;BME280;49727;51.078;17.066;2022-11-20T09:53:13;99683.88;;;24.54;18.25
63582;BME280;49727;51.078;17.066;2022-11-20T10:08:21;99678.00;;;22.58;17.72
63582;BME280;49727;51.078;17.066;2022-11-20T10:39:05;99636.44;;;25.31;14.82
63582;BME280;49727;51.078;17.066;2022-11-20T10:54:17;99636.25;;;26.31;14.57
63582;BME280;49727;51.078;17.066;2022-11-20T11:09:27;99620.59;;;26.90;12.82
63582;BME280;49727;51.078;17.066;2022-11-20T11:24:32;99592.13;;;27.29;13.71
63582;BME280;49727;51.078;17.066;2022-11-20T11:39:33;99578.41;;;28.98;12.21
63582;BME280;49727;51.078;17.066;2022-11-20T11:54:43;99572.38;;;28.87;12.43
63582;BME280;49727;51.078;17.066;2022-11-20T12:09:49;99543.06;;;28.18;12.95
63582;BME280;49727;51.078;17.066;2022-11-20T12:40:28;99536.44;;;25.90;13.84
63582;BME280;49727;51.078;17.066;2022-11-20T12:55:58;99530.22;;;23.54;15.18
63582;BME280;49727;51.078;17.066;2022-11-20T13:26:20;99478.34;;;23.24;14.85
63582;BME280;49727;51.078;17.066;2022-11-20T14:12:15;99445.56;;;18.10;19.28
63582;BME280;49727;51.078;17.066;2022-11-20T14:27:18;99425.47;;;15.09;22.42
63582;BME280;49727;51.078;17.066;2022-11-20T14:42:23;99430.31;;;10.59;27.04
63582;BME280;49727;51.078;17.066;2022-11-20T15:12:24;99430.38;;;3.50;37.46
63582;BME280;49727;51.078;17.066;2022-11-20T15:27:25;99425.69;;;1.97;39.87
63582;BME280;49727;51.078;17.066;2022-11-20T15:42:25;99429.59;;;0.77;42.75
63582;BME280;49727;51.078;17.066;2022-11-20T15:57:25;99428.03;;;-0.13;44.83
63582;BME280;49727;51.078;17.066;2022-11-20T16:12:27;99426.44;;;-0.95;47.43
63582;BME280;49727;51.078;17.066;2022-11-20T16:27:45;99420.13;;;-1.63;49.93
63582;BME280;49727;51.078;17.066;2022-11-20T16:42:47;99414.94;;;-2.00;50.98
63582;BME280;49727;51.078;17.066;2022-11-20T16:57:47;99418.75;;;-2.30;53.05
63582;BME280;49727;51.078;17.066;2022-11-20T17:12:48;99424.75;;;-2.54;54.82
63582;BME280;49727;51.078;17.066;2022-11-20T17:27:48;99442.03;;;-2.66;55.73
63582;BME280;49727;51.078;17.066;2022-11-20T17:42:49;99444.75;;;-2.67;57.47
63582;BME280;49727;51.078;17.066;2022-11-20T17:57:49;99449.13;;;-2.81;58.63
63582;BME280;49727;51.078;17.066;2022-11-20T18:12:52;99429.50;;;-2.99;59.10
63582;BME280;49727;51.078;17.066;2022-11-20T18:27:53;99429.25;;;-3.22;59.42
63582;BME280;49727;51.078;17.066;2022-11-20T18:42:53;99429.84;;;-3.31;60.05
63582;BME280;49727;51.078;17.066;2022-11-20T18:58:12;99450.81;;;-3.33;61.65
63582;BME280;49727;51.078;17.066;2022-11-20T19:13:13;99428.69;;;-3.40;62.07
63582;BME280;49727;51.078;17.066;2022-11-20T19:28:13;99430.13;;;-3.09;62.69
63582;BME280;49727;51.078;17.066;2022-11-20T19:43:14;99435.78;;;-2.89;63.84
63582;BME280;49727;51.078;17.066;2022-11-20T19:58:14;99443.69;;;-2.78;63.21
63582;BME280;49727;51.078;17.066;2022-11-20T20:13:15;99473.94;;;-2.75;64.43
63582;BME280;49727;51.078;17.066;2022-11-20T20:28:15;99475.41;;;-2.71;64.31
63582;BME280;49727;51.078;17.066;2022-11-20T20:43:16;99461.00;;;-3.30;64.02
63582;BME280;49727;51.078;17.066;2022-11-20T20:58:16;99448.41;;;-3.63;65.17
63582;BME280;49727;51.078;17.066;2022-11-20T21:13:17;99435.06;;;-3.86;66.21
63582;BME280;49727;51.078;17.066;2022-11-20T21:28:18;99451.75;;;-4.03;66.89
63582;BME280;49727;51.078;17.066;2022-11-20T21:43:18;99451.13;;;-4.21;67.49
63582;BME280;49727;51.078;17.066;2022-11-20T21:58:19;99420.47;;;-4.45;67.80
63582;BME280;49727;51.078;17.066;2022-11-20T22:13:19;99419.00;;;-4.34;68.61
63582;BME280;49727;51.078;17.066;2022-11-20T22:28:39;99421.88;;;-4.68;68.85
63582;BME280;49727;51.078;17.066;2022-11-20T22:43:42;99421.97;;;-4.84;68.67
63582;BME280;49727;51.078;17.066;2022-11-20T22:58:44;99427.78;;;-4.95;69.30
63582;BME280;49727;51.078;17.066;2022-11-20T23:13:46;99406.31;;;-5.13;69.55
63582;BME280;49727;51.078;17.066;2022-11-20T23:28:47;99376.63;;;-5.23;69.85
63582;BME280;49727;51.078;17.066;2022-11-20T23:43:47;99351.47;;;-5.37;70.20
63582;BME280;49727;51.078;17.066;2022-11-20T23:58:47;99364.66;;;-5.25;71.04
